Sonoita, Arizona
Current Conditions -  °F | °C
As of 11:56 PM on Monday 20 Oct 2014 (Local Time) from KALK Reporting Station
Clear Clear  
Wind Chill: 54°   Ceiling: Unl
Heat Index: 54°   Visibility: 10mi
Dew Point: 44°   Wind: 5mph
Humidity: 69%   Direction: 10°N
Pressure: 30.08"   Gusts: NA
Location:  31.68°N, 110.66°W
Report Text: KALK 210656Z AUTO 01004KT 10SM CLR 12/07 A3008 RMK AO2 SLP110 T01220067 402390094 TSNO
Loading
Personal Weather Stations






























Interactive Weather Map
Tropical Storm Tracking
New forecast layout! Learn more

10-Day Weather Forecast

Advertisements
Track Severe Weather on mobile